createdAt,value
2018-02-16T00:09:38.084Z,74.2
2018-02-16T00:19:57.086Z,74.4
2018-02-16T00:30:10.705Z,74.2
2018-02-16T00:40:27.121Z,74.0
2018-02-16T00:50:41.337Z,73.9
2018-02-16T01:01:02.591Z,74.2
2018-02-16T01:11:23.511Z,73.9
2018-02-16T01:21:43.311Z,74.7
2018-02-16T01:32:02.762Z,74.5
2018-02-16T01:42:17.461Z,74.9
2018-02-16T01:53:10.083Z,75.0
2018-02-16T02:03:23.920Z,74.9
2018-02-16T02:14:10.912Z,74.9
2018-02-16T02:24:25.913Z,75.2
2018-02-16T02:34:44.716Z,75.7
2018-02-16T02:45:10.080Z,75.4
2018-02-16T02:55:26.233Z,75.0
2018-02-16T03:05:39.911Z,75.3
2018-02-16T03:16:05.453Z,74.9
2018-02-16T03:26:32.372Z,75.1
2018-02-16T03:36:50.195Z,75.1
2018-02-16T03:47:03.999Z,75.0
2018-02-16T03:57:18.509Z,74.9
2018-02-16T04:07:37.524Z,74.8
2018-02-16T04:18:42.515Z,75.4
2018-02-16T04:28:56.995Z,75.0
2018-02-16T04:40:15.331Z,75.2
2018-02-16T04:51:22.021Z,75.0
2018-02-16T05:01:36.168Z,74.8
2018-02-16T05:11:51.959Z,75.0
2018-02-16T05:22:05.872Z,75.2
2018-02-16T05:32:20.562Z,75.3
2018-02-16T05:42:34.997Z,75.6
2018-02-16T05:53:34.264Z,75.4
2018-02-16T06:04:12.589Z,75.3
2018-02-16T06:14:26.129Z,75.5
2018-02-16T06:25:12.191Z,75.6
2018-02-16T06:35:57.992Z,75.7
2018-02-16T06:47:28.883Z,75.3
2018-02-16T06:57:49.482Z,75.0
2018-02-16T07:10:04.860Z,75.2
2018-02-16T07:22:24.700Z,75.3
2018-02-16T07:37:41.311Z,75.0
2018-02-16T07:49:03.732Z,75.0
2018-02-16T07:59:18.717Z,76.5
2018-02-16T08:09:34.912Z,79.3
2018-02-16T08:20:36.804Z,79.4
2018-02-16T08:31:33.533Z,77.5
2018-02-16T08:41:50.122Z,75.0
2018-02-16T08:55:27.214Z,70.7
2018-02-16T09:06:25.512Z,68.1
2018-02-16T09:17:42.008Z,66.4
2018-02-16T09:29:06.926Z,65.8
2018-02-16T09:39:23.484Z,66.7
2018-02-16T09:53:50.152Z,67.9
2018-02-16T10:05:28.106Z,68.7
2018-02-16T10:17:13.919Z,70.1
2018-02-16T10:28:18.892Z,74.6
2018-02-16T10:39:22.867Z,76.2
2018-02-16T10:49:39.393Z,74.2
2018-02-16T11:01:55.150Z,71.4
2018-02-16T11:13:22.961Z,69.3
2018-02-16T11:23:40.067Z,68.4
2018-02-16T11:34:36.428Z,69.1
2018-02-16T11:47:40.069Z,69.8
2018-02-16T11:58:55.263Z,70.1
2018-02-16T12:10:58.341Z,70.5
2018-02-16T12:22:40.744Z,68.8
2018-02-16T12:36:41.383Z,67.4
2018-02-16T12:48:12.513Z,66.6
2018-02-16T13:01:57.329Z,67.8
2018-02-16T13:12:59.306Z,67.9
2018-02-16T13:23:14.878Z,67.2
2018-02-16T13:34:02.555Z,68.0
2018-02-16T13:44:58.273Z,68.7
2018-02-16T13:55:54.558Z,69.9
2018-02-16T14:07:25.402Z,71.7
2018-02-16T14:20:13.849Z,72.8
2018-02-16T14:31:15.771Z,72.3
2018-02-16T14:42:18.669Z,72.7
2018-02-16T16:18:24.952Z,65.0
2018-02-16T16:50:48.298Z,66.3
2018-02-16T17:01:04.931Z,67.2
2018-02-16T17:12:33.439Z,67.7
2018-02-16T17:24:01.330Z,68.0
2018-02-16T17:35:30.921Z,68.2
2018-02-16T17:49:22.451Z,68.2
2018-02-16T18:00:42.979Z,68.0
2018-02-16T18:31:18.080Z,67.6
2018-02-16T18:45:35.249Z,67.4
2018-02-16T18:56:28.579Z,67.4
2018-02-16T19:14:49.683Z,67.8
2018-02-16T19:28:28.744Z,67.8
2018-02-16T19:40:44.452Z,67.6
2018-02-16T19:54:59.703Z,68.3
2018-02-16T20:08:46.957Z,67.9
2018-02-16T20:33:12.385Z,68.3
2018-02-16T20:43:35.112Z,68.7
2018-02-16T21:04:36.660Z,69.1
2018-02-16T21:25:07.211Z,69.0
2018-02-16T21:35:53.798Z,69.1
2018-02-16T21:46:18.022Z,69.1
2018-02-16T22:06:51.286Z,69.0
2018-02-16T22:28:09.771Z,68.9
2018-02-16T22:40:29.239Z,68.8
2018-02-16T22:51:16.040Z,68.7
2018-02-16T23:01:31.702Z,68.8
2018-02-16T23:13:17.627Z,69.0
2018-02-16T23:23:55.338Z,68.9
2018-02-16T23:35:09.724Z,69.0
2018-02-16T23:45:34.152Z,69.0
2018-02-16T23:56:27.312Z,68.7
